CDT,Max TemperatureF,Mean TemperatureF,Min TemperatureF,Max Dew PointF,MeanDew PointF,Min DewpointF,Max Humidity, Mean Humidity, Min Humidity, Max Sea Level PressureIn, Mean Sea Level PressureIn, Min Sea Level PressureIn, Max VisibilityMiles, Mean VisibilityMiles, Min VisibilityMiles, Max Wind SpeedMPH, Mean Wind SpeedMPH, Max Gust SpeedMPH,PrecipitationIn, CloudCover, Events, WindDirDegrees
2013-8-1,87,77,67,69,67,64,100,73,46,30.10,30.02,29.90,10,10,10,15,8,20,0.00,3,,149
2013-8-2,92,82,71,77,72,65,85,73,60,29.96,29.86,29.77,10,8,1,21,11,33,1.50,7,Rain-Thunderstorm,125
2013-8-3,87,80,72,76,72,68,91,80,69,30.02,29.95,29.86,10,10,6,28,12,35,1.48,6,Rain-Thunderstorm,115
2013-8-4,78,74,70,74,73,70,100,91,82,30.12,30.04,29.97,10,7,1,36,9,45,2.38,8,Rain-Thunderstorm,106
2013-8-5,93,82,71,75,72,69,93,73,52,29.96,29.87,29.76,10,10,9,32,9,39,0.12,6,Rain-Thunderstorm,108
2013-8-6,91,82,72,78,71,66,87,72,56,29.85,29.79,29.73,10,10,10,37,7,48,T,5,Rain-Thunderstorm,126
2013-8-7,89,81,72,72,70,68,93,74,55,29.91,29.86,29.74,10,10,10,15,8,23,0.03,6,Rain-Thunderstorm,57
2013-8-8,83,76,68,71,69,66,97,80,62,29.98,29.91,29.81,10,8,0,29,8,39,1.78,7,Fog-Rain-Thunderstorm,110
2013-8-9,74,69,64,68,64,59,97,83,68,30.13,30.02,29.93,10,10,3,28,10,32,0.31,7,Rain-Thunderstorm,46
2013-8-10,84,74,63,66,64,62,93,72,51,30.17,30.12,30.05,10,10,10,12,6,18,0.00,2,,60
2013-8-11,85,77,68,71,68,65,90,76,61,30.11,30.05,29.98,10,10,10,13,5,14,T,4,Rain,139
2013-8-12,86,78,69,72,70,67,90,76,61,30.05,29.99,29.93,10,9,4,21,8,28,0.55,6,Rain-Thunderstorm,171
2013-8-13,84,75,66,70,68,66,97,81,65,30.10,30.04,29.96,10,8,0,30,8,36,1.81,7,Fog-Rain-Thunderstorm,42
2013-8-14,80,72,63,66,62,60,93,72,51,30.16,30.10,30.03,10,10,10,14,7,21,0.00,2,,108
2013-8-15,82,72,62,69,64,59,93,78,63,30.08,30.03,29.94,10,9,2,28,9,35,0.66,5,Rain-Thunderstorm,143
2013-8-16,80,71,62,66,64,61,100,79,58,30.13,30.07,30.02,10,10,7,12,5,14,0.01,5,Rain,137
2013-8-17,80,72,63,64,61,59,93,74,54,30.15,30.11,30.05,10,10,10,13,7,16,0.00,2,,121
2013-8-18,81,72,63,65,61,57,84,71,58,30.13,30.08,30.01,10,10,10,14,7,20,0.00,3,,139
2013-8-19,86,76,66,68,66,63,87,71,55,30.06,30.02,29.95,10,10,10,18,10,22,0.00,2,,161
2013-8-20,90,78,66,68,66,64,93,70,47,30.03,29.98,29.94,10,10,10,17,10,21,0.00,0,,167
2013-8-21,92,80,68,68,65,64,90,66,41,30.03,29.99,29.96,10,10,10,17,10,22,0.00,2,,175
2013-8-22,89,78,67,69,67,64,93,72,50,30.06,30.00,29.96,10,10,8,15,8,18,0.00,4,,167
2013-8-23,92,82,72,72,70,68,90,71,52,30.02,29.98,29.92,10,10,10,20,9,24,0.00,4,,145
2013-8-24,92,82,71,71,71,69,93,73,52,30.07,30.03,29.99,10,10,9,20,11,25,0.00,1,,154
2013-8-25,93,83,72,71,69,67,93,67,41,30.14,30.10,30.06,10,10,9,18,10,29,0.00,0,,160
2013-8-26,93,83,72,70,68,65,87,64,41,30.14,30.08,30.02,10,10,10,20,11,26,0.00,1,,181
2013-8-27,92,80,68,68,65,59,90,62,34,30.05,30.01,29.96,10,10,10,18,9,26,0.00,1,,184
2013-8-28,93,81,68,71,68,66,90,69,47,30.02,29.98,29.94,10,10,10,15,8,22,0.00,3,,172
2013-8-29,99,86,72,71,66,60,87,58,29,30.00,29.96,29.90,10,10,10,17,8,25,0.00,2,,180
2013-8-30,102,87,71,69,65,55,84,53,21,29.94,29.88,29.81,10,10,10,13,6,16,0.00,0,,187
2013-8-31,103,87,70,69,66,60,84,55,25,29.85,29.79,29.72,10,10,10,20,5,23,0.00,2,,155